createdAt,value
2023-01-06T00:00:29.685Z,63.99
2023-01-06T00:01:32.533Z,63.99
2023-01-06T00:02:35.118Z,63.93
2023-01-06T00:03:37.900Z,63.97
2023-01-06T00:04:40.409Z,64.08
2023-01-06T00:05:43.281Z,64.05
2023-01-06T00:06:45.506Z,64.07
2023-01-06T00:07:52.124Z,64.21
2023-01-06T00:08:59.056Z,64.33
2023-01-06T00:10:02.518Z,64.13
2023-01-06T00:11:10.142Z,64.25
2023-01-06T00:12:12.374Z,64.23
2023-01-06T00:13:14.594Z,64.20
2023-01-06T00:14:17.085Z,64.14
2023-01-06T00:15:19.994Z,64.24
2023-01-06T00:16:22.246Z,64.29
2023-01-06T00:17:25.985Z,64.32
2023-01-06T00:18:28.173Z,64.36
2023-01-06T00:19:30.306Z,64.35
2023-01-06T00:20:34.276Z,64.32
2023-01-06T00:21:36.521Z,64.38
2023-01-06T00:22:43.290Z,64.47
2023-01-06T00:23:45.594Z,64.49
2023-01-06T00:24:47.848Z,64.44
2023-01-06T00:26:10.507Z,64.43
2023-01-06T00:27:12.670Z,64.49
2023-01-06T00:28:14.805Z,64.70
2023-01-06T00:29:17.041Z,64.70
2023-01-06T00:30:19.322Z,64.74
2023-01-06T00:31:22.632Z,64.86
2023-01-06T00:32:27.827Z,64.74
2023-01-06T00:33:29.973Z,64.69
2023-01-06T00:34:32.209Z,64.76
2023-01-06T00:35:35.650Z,64.73
2023-01-06T00:36:39.417Z,64.74
2023-01-06T00:37:41.601Z,64.68
2023-01-06T00:38:43.788Z,64.67
2023-01-06T00:39:45.974Z,64.69
2023-01-06T00:40:48.144Z,64.76
2023-01-06T00:42:06.096Z,64.72
2023-01-06T00:43:08.995Z,64.70
2023-01-06T00:44:11.159Z,64.72
2023-01-06T00:45:13.439Z,64.81
2023-01-06T00:46:15.624Z,64.71
2023-01-06T00:47:18.279Z,64.87
2023-01-06T00:48:20.458Z,64.85
2023-01-06T00:49:23.832Z,64.83
2023-01-06T00:50:26.150Z,64.75
2023-01-06T00:51:28.425Z,64.84
2023-01-06T00:52:30.595Z,64.92
2023-01-06T00:53:34.685Z,64.75
2023-01-06T00:54:37.363Z,64.85
2023-01-06T00:55:40.451Z,64.93
2023-01-06T00:56:46.313Z,64.78
2023-01-06T00:57:52.723Z,64.82
2023-01-06T00:58:55.164Z,64.89
2023-01-06T00:59:57.599Z,64.79
2023-01-06T01:01:04.300Z,64.83
2023-01-06T01:02:07.027Z,64.98
2023-01-06T01:03:09.314Z,64.98
2023-01-06T01:04:12.136Z,65.04
2023-01-06T01:05:14.919Z,65.08
2023-01-06T01:06:18.091Z,65.02
2023-01-06T01:07:23.127Z,65.08
2023-01-06T01:08:25.267Z,65.31
2023-01-06T01:09:30.121Z,65.02
2023-01-06T01:10:33.224Z,65.11
2023-01-06T01:11:54.775Z,65.16
2023-01-06T01:12:56.946Z,65.10
2023-01-06T01:13:59.910Z,65.09
2023-01-06T01:15:02.109Z,65.15
2023-01-06T01:16:08.632Z,65.06
2023-01-06T01:17:13.364Z,65.20
2023-01-06T01:18:15.743Z,65.08
2023-01-06T01:19:18.519Z,65.19
2023-01-06T01:20:20.737Z,65.04
2023-01-06T01:21:22.974Z,65.08
2023-01-06T01:22:27.773Z,65.32
2023-01-06T01:23:29.941Z,65.18
2023-01-06T01:24:32.250Z,65.29
2023-01-06T01:25:34.709Z,65.21
2023-01-06T01:26:37.142Z,65.46
2023-01-06T01:27:39.296Z,65.40
2023-01-06T01:28:41.770Z,65.27
2023-01-06T01:29:44.394Z,65.34
2023-01-06T01:30:46.561Z,65.42
2023-01-06T01:31:48.990Z,65.43
2023-01-06T01:32:51.162Z,65.45
2023-01-06T01:33:53.418Z,65.46
2023-01-06T01:34:56.502Z,65.46
2023-01-06T01:36:05.153Z,65.47
2023-01-06T01:37:07.445Z,65.55
2023-01-06T01:38:10.032Z,65.47
2023-01-06T01:39:15.989Z,65.58
2023-01-06T01:40:19.169Z,65.58
2023-01-06T01:41:22.884Z,65.65
2023-01-06T01:42:25.221Z,65.66
2023-01-06T01:43:47.205Z,65.64
2023-01-06T01:44:55.196Z,65.70
2023-01-06T01:45:57.403Z,65.63
2023-01-06T01:46:59.626Z,65.60
2023-01-06T01:48:35.321Z,65.74
2023-01-06T01:49:41.034Z,65.55
2023-01-06T01:50:48.497Z,65.50
2023-01-06T01:51:53.311Z,65.73
2023-01-06T01:53:01.299Z,65.66
2023-01-06T01:54:08.073Z,65.58
2023-01-06T01:55:11.227Z,65.63
2023-01-06T01:56:18.900Z,65.64
2023-01-06T01:57:27.468Z,65.49
2023-01-06T01:58:38.733Z,65.64
2023-01-06T01:59:43.308Z,65.57
2023-01-06T02:00:46.828Z,65.68
2023-01-06T02:01:49.802Z,65.71
2023-01-06T02:02:52.497Z,65.71
2023-01-06T02:03:55.330Z,65.81
2023-01-06T02:04:57.830Z,65.91
2023-01-06T02:06:04.108Z,65.97
2023-01-06T02:07:06.765Z,65.99
2023-01-06T02:08:26.545Z,66.08
2023-01-06T02:09:34.584Z,65.98
2023-01-06T02:10:36.784Z,65.92
2023-01-06T02:11:40.712Z,66.04
2023-01-06T02:12:44.927Z,65.99
2023-01-06T02:13:52.620Z,66.11
2023-01-06T02:14:55.469Z,66.04
2023-01-06T02:16:09.952Z,65.96
2023-01-06T02:18:06.837Z,66.19
2023-01-06T02:19:38.961Z,66.05
2023-01-06T02:20:59.493Z,66.21
2023-01-06T02:22:13.736Z,66.24
2023-01-06T02:23:43.849Z,66.25
2023-01-06T02:25:06.645Z,66.18
2023-01-06T02:26:37.242Z,66.27
2023-01-06T02:27:54.500Z,66.40
2023-01-06T02:29:18.145Z,66.46
2023-01-06T02:30:44.775Z,66.45
2023-01-06T02:32:07.764Z,66.47
2023-01-06T02:33:22.335Z,66.37
2023-01-06T02:34:35.853Z,66.47
2023-01-06T02:35:57.751Z,66.49
2023-01-06T02:37:14.539Z,66.51
2023-01-06T02:38:57.462Z,66.66
2023-01-06T02:40:05.828Z,66.53
2023-01-06T02:41:34.005Z,66.62
2023-01-06T02:43:10.261Z,66.65
2023-01-06T02:44:32.084Z,66.83
2023-01-06T02:45:57.892Z,66.70
2023-01-06T02:47:17.501Z,66.93
2023-01-06T02:48:42.807Z,66.81
2023-01-06T02:50:02.719Z,66.98
2023-01-06T02:51:13.582Z,66.88
2023-01-06T02:52:24.630Z,67.02
2023-01-06T02:53:47.772Z,66.99
2023-01-06T02:54:58.982Z,67.08
2023-01-06T02:56:03.253Z,67.06
2023-01-06T02:57:40.946Z,67.06
2023-01-06T02:58:58.720Z,67.24
2023-01-06T03:00:11.370Z,67.15
2023-01-06T03:01:20.172Z,67.23
2023-01-06T03:02:23.880Z,67.23
2023-01-06T03:03:30.677Z,67.33
2023-01-06T03:04:41.226Z,67.38
2023-01-06T03:05:48.292Z,67.24
2023-01-06T03:06:54.936Z,67.41
2023-01-06T03:08:02.645Z,67.49
2023-01-06T03:09:06.728Z,67.49
2023-01-06T03:10:20.563Z,67.42
2023-01-06T03:11:26.333Z,67.43
2023-01-06T03:13:14.904Z,67.43
2023-01-06T03:14:28.847Z,67.37
2023-01-06T03:15:31.063Z,67.37
2023-01-06T03:16:33.355Z,67.29
2023-01-06T03:17:36.469Z,67.40
2023-01-06T03:18:42.108Z,67.34
2023-01-06T03:19:45.004Z,67.36
2023-01-06T03:20:51.837Z,67.33
2023-01-06T03:21:55.118Z,67.31
2023-01-06T03:22:58.385Z,67.32
2023-01-06T03:24:02.115Z,67.30
2023-01-06T03:25:06.536Z,67.24
2023-01-06T03:26:10.107Z,67.34
2023-01-06T03:27:12.850Z,67.16
2023-01-06T03:28:15.929Z,67.27
2023-01-06T03:29:18.733Z,67.28
2023-01-06T03:30:22.550Z,67.28
2023-01-06T03:31:40.155Z,67.17
2023-01-06T03:32:59.591Z,67.10
2023-01-06T03:34:43.291Z,67.18
2023-01-06T03:36:00.838Z,67.05
2023-01-06T03:37:21.127Z,67.19
2023-01-06T03:38:38.017Z,67.12
2023-01-06T03:40:10.919Z,67.05
2023-01-06T03:41:53.597Z,66.96
2023-01-06T03:43:16.623Z,67.00
2023-01-06T03:44:53.406Z,67.04
2023-01-06T03:46:16.498Z,66.96
2023-01-06T03:47:39.180Z,66.92
2023-01-06T03:48:47.437Z,66.92
2023-01-06T03:49:59.208Z,66.93
2023-01-06T03:51:14.498Z,66.84
2023-01-06T03:52:27.086Z,67.06
2023-01-06T03:53:39.480Z,66.99
2023-01-06T03:54:50.704Z,66.85
2023-01-06T03:56:06.141Z,67.00
2023-01-06T03:57:16.691Z,66.87
2023-01-06T03:58:20.144Z,66.87
2023-01-06T03:59:28.098Z,66.90
2023-01-06T04:00:37.104Z,66.82
2023-01-06T04:01:45.589Z,66.75
2023-01-06T04:02:49.053Z,66.76
2023-01-06T04:03:55.709Z,66.84
2023-01-06T04:05:08.834Z,66.87
2023-01-06T04:06:11.026Z,66.75
2023-01-06T04:07:14.456Z,66.73
2023-01-06T04:08:17.972Z,66.84
2023-01-06T04:09:20.720Z,66.83
2023-01-06T04:10:23.689Z,66.76
2023-01-06T04:11:48.201Z,66.70
2023-01-06T04:12:51.257Z,66.75
2023-01-06T04:13:57.263Z,66.85
2023-01-06T04:14:59.613Z,66.92
2023-01-06T04:16:01.827Z,66.81
2023-01-06T04:17:04.133Z,66.87
2023-01-06T04:18:06.358Z,66.86
2023-01-06T04:19:11.985Z,66.91
2023-01-06T04:20:28.456Z,66.92
2023-01-06T04:21:59.816Z,66.86
2023-01-06T04:23:05.962Z,67.01
2023-01-06T04:24:12.241Z,66.92
2023-01-06T04:25:14.529Z,66.95
2023-01-06T04:26:16.933Z,66.96
2023-01-06T04:27:23.244Z,67.03
2023-01-06T04:28:25.414Z,67.06
2023-01-06T04:29:28.255Z,67.06
2023-01-06T04:30:31.765Z,67.01
2023-01-06T04:31:35.548Z,66.95
2023-01-06T04:32:38.002Z,67.08
2023-01-06T04:33:42.463Z,67.05
2023-01-06T04:34:47.048Z,67.03
2023-01-06T04:35:49.337Z,67.08
2023-01-06T04:36:54.447Z,67.13
2023-01-06T04:37:56.675Z,66.97
2023-01-06T04:38:58.815Z,67.03
2023-01-06T04:40:01.451Z,67.04
2023-01-06T04:41:03.908Z,67.15
2023-01-06T04:42:06.277Z,67.14
2023-01-06T04:43:13.467Z,67.12
2023-01-06T04:44:15.612Z,67.09
2023-01-06T04:45:18.541Z,67.15
2023-01-06T04:46:20.765Z,67.16
2023-01-06T04:47:22.973Z,67.03
2023-01-06T04:48:25.732Z,67.03
2023-01-06T04:49:27.899Z,67.06
2023-01-06T04:50:31.288Z,67.10
2023-01-06T04:51:33.717Z,67.07
2023-01-06T04:52:39.024Z,67.14
2023-01-06T04:53:42.107Z,67.17
2023-01-06T04:54:44.292Z,67.24
2023-01-06T04:55:46.492Z,67.13
2023-01-06T04:56:48.770Z,67.18
2023-01-06T04:57:50.930Z,67.13
2023-01-06T04:58:55.741Z,67.18
2023-01-06T04:59:57.887Z,67.10
2023-01-06T05:01:03.856Z,67.15
2023-01-06T05:02:06.171Z,67.07
2023-01-06T05:03:08.384Z,67.17
2023-01-06T05:04:10.771Z,67.21
2023-01-06T05:05:13.372Z,67.17
2023-01-06T05:06:16.151Z,67.25
2023-01-06T05:07:18.354Z,67.22
2023-01-06T05:08:20.816Z,67.22
2023-01-06T05:09:22.957Z,67.28
2023-01-06T05:10:25.147Z,67.32
2023-01-06T05:11:27.838Z,67.26
2023-01-06T05:12:31.470Z,67.31
2023-01-06T05:13:34.699Z,67.14
2023-01-06T05:14:36.897Z,67.31
2023-01-06T05:15:39.526Z,67.27
2023-01-06T05:16:41.910Z,67.30
2023-01-06T05:17:44.124Z,67.35
2023-01-06T05:18:46.386Z,67.40
2023-01-06T05:19:48.538Z,67.45
2023-01-06T05:20:54.795Z,67.39
2023-01-06T05:21:57.301Z,67.17
2023-01-06T05:22:59.448Z,67.37
2023-01-06T05:24:01.617Z,67.37
2023-01-06T05:25:04.063Z,67.38
2023-01-06T05:26:06.678Z,67.31
2023-01-06T05:27:09.215Z,67.35
2023-01-06T05:28:11.466Z,67.48
2023-01-06T05:29:17.356Z,67.62
2023-01-06T05:30:19.646Z,67.49
2023-01-06T05:31:22.206Z,67.53
2023-01-06T05:32:24.480Z,67.74
2023-01-06T05:33:28.258Z,67.73
2023-01-06T05:34:30.991Z,67.73
2023-01-06T05:35:33.223Z,67.81
2023-01-06T05:36:35.355Z,67.88
2023-01-06T05:37:37.482Z,67.88
2023-01-06T05:38:40.510Z,68.01
2023-01-06T05:39:42.689Z,68.05
2023-01-06T05:40:44.819Z,68.08
2023-01-06T05:41:46.976Z,68.15
2023-01-06T05:42:49.151Z,68.12
2023-01-06T05:43:51.338Z,68.33
2023-01-06T05:44:53.502Z,68.33
2023-01-06T05:45:56.454Z,68.40
2023-01-06T05:46:58.671Z,68.47
2023-01-06T05:48:02.857Z,68.42
2023-01-06T05:49:05.216Z,68.52
2023-01-06T05:50:07.963Z,68.55
2023-01-06T05:51:13.996Z,68.63
2023-01-06T05:52:16.202Z,68.62
2023-01-06T05:53:18.696Z,68.63
2023-01-06T05:54:20.837Z,68.71
2023-01-06T05:55:23.029Z,68.66
2023-01-06T05:56:25.191Z,68.63
2023-01-06T05:57:27.391Z,68.81
2023-01-06T05:58:29.989Z,68.89
2023-01-06T05:59:32.136Z,68.93
2023-01-06T06:00:36.740Z,68.92
2023-01-06T06:01:39.033Z,69.01
2023-01-06T06:02:41.252Z,69.27
2023-01-06T06:03:44.922Z,69.32
2023-01-06T06:04:47.870Z,69.05
2023-01-06T06:05:50.111Z,69.12
2023-01-06T06:06:52.302Z,69.14
2023-01-06T06:07:55.702Z,69.28
2023-01-06T06:08:59.529Z,69.25
2023-01-06T06:10:05.457Z,69.29
2023-01-06T06:11:12.202Z,69.27
2023-01-06T06:12:14.357Z,69.40
2023-01-06T06:13:16.519Z,69.30
2023-01-06T06:14:21.216Z,69.36
2023-01-06T06:15:23.376Z,69.51
2023-01-06T06:16:27.888Z,69.44
2023-01-06T06:17:31.761Z,69.49
2023-01-06T06:18:35.122Z,69.50
2023-01-06T06:19:37.350Z,69.62
2023-01-06T06:20:39.630Z,69.70
2023-01-06T06:21:41.781Z,69.63
2023-01-06T06:22:44.047Z,69.89
2023-01-06T06:23:46.329Z,69.68
2023-01-06T06:24:48.664Z,69.62
2023-01-06T06:25:50.822Z,69.65
2023-01-06T06:26:52.949Z,69.68
2023-01-06T06:27:59.698Z,69.74
2023-01-06T06:29:02.107Z,69.75
2023-01-06T06:30:08.663Z,69.86
2023-01-06T06:31:23.154Z,69.77
2023-01-06T06:32:25.370Z,69.74
2023-01-06T06:33:27.581Z,69.74
2023-01-06T06:34:29.737Z,69.92
2023-01-06T06:35:32.253Z,69.92
2023-01-06T06:36:34.475Z,69.88
2023-01-06T06:37:36.647Z,70.02
2023-01-06T06:38:39.553Z,69.92
2023-01-06T06:39:41.774Z,70.03
2023-01-06T06:40:44.846Z,69.98
2023-01-06T06:41:47.016Z,70.02
2023-01-06T06:42:53.587Z,70.17
2023-01-06T06:43:58.067Z,70.22
2023-01-06T06:45:00.265Z,70.12
2023-01-06T06:46:02.471Z,70.09
2023-01-06T06:47:04.675Z,70.06
2023-01-06T06:48:07.067Z,70.06
2023-01-06T06:49:09.287Z,70.04
2023-01-06T06:50:15.985Z,70.02
2023-01-06T06:51:21.032Z,70.03
2023-01-06T06:52:23.218Z,69.90
2023-01-06T06:53:25.898Z,70.05
2023-01-06T06:54:28.160Z,70.08
2023-01-06T06:55:30.326Z,70.01
2023-01-06T06:56:32.549Z,70.06
2023-01-06T06:57:34.693Z,70.14
2023-01-06T06:58:37.826Z,70.19
2023-01-06T06:59:39.997Z,70.17
2023-01-06T07:00:42.184Z,70.06
2023-01-06T07:01:44.442Z,69.90
2023-01-06T07:02:49.832Z,70.10
2023-01-06T07:03:52.053Z,70.11
2023-01-06T07:04:54.213Z,70.16
2023-01-06T07:05:56.687Z,70.10
2023-01-06T07:06:59.276Z,70.11
2023-01-06T07:08:02.241Z,70.14
2023-01-06T07:09:04.522Z,70.25
2023-01-06T07:10:07.229Z,70.16
2023-01-06T07:11:09.422Z,70.20
2023-01-06T07:12:11.652Z,70.19
2023-01-06T07:13:13.942Z,70.12
2023-01-06T07:14:16.123Z,70.13
2023-01-06T07:15:18.320Z,70.13
2023-01-06T07:16:23.321Z,70.18
2023-01-06T07:17:29.293Z,70.32
2023-01-06T07:18:31.483Z,70.31
2023-01-06T07:19:33.739Z,70.29
2023-01-06T07:20:37.897Z,70.46
2023-01-06T07:21:40.105Z,70.32
2023-01-06T07:22:42.293Z,70.52
2023-01-06T07:23:44.668Z,70.51
2023-01-06T07:24:47.263Z,70.39
2023-01-06T07:25:58.486Z,70.53
2023-01-06T07:27:02.990Z,70.51
2023-01-06T07:28:07.177Z,70.62
2023-01-06T07:29:09.410Z,70.47
2023-01-06T07:30:13.000Z,70.60
2023-01-06T07:31:15.397Z,70.68
2023-01-06T07:32:17.581Z,70.58
2023-01-06T07:33:21.389Z,70.65
2023-01-06T07:34:23.544Z,70.70
2023-01-06T07:35:25.847Z,70.75
2023-01-06T07:36:28.023Z,70.80
2023-01-06T07:37:30.287Z,70.75
2023-01-06T07:38:35.432Z,70.86
2023-01-06T07:39:37.573Z,70.80
2023-01-06T07:40:40.919Z,70.93
2023-01-06T07:41:43.110Z,70.87
2023-01-06T07:42:47.888Z,70.89
2023-01-06T07:43:50.060Z,70.92
2023-01-06T07:44:52.270Z,70.89
2023-01-06T07:45:54.533Z,70.87
2023-01-06T07:46:56.803Z,70.86
2023-01-06T07:47:59.026Z,70.95
2023-01-06T07:49:01.190Z,70.94
2023-01-06T07:50:06.296Z,71.04
2023-01-06T07:51:08.472Z,71.20
2023-01-06T07:52:10.758Z,71.26
2023-01-06T07:53:13.232Z,71.44
2023-01-06T07:54:15.458Z,71.43
2023-01-06T07:55:17.644Z,71.40
2023-01-06T07:56:21.784Z,71.43
2023-01-06T07:57:24.180Z,71.30
2023-01-06T07:58:26.405Z,71.38
2023-01-06T07:59:28.573Z,71.34
2023-01-06T08:00:30.718Z,71.40
2023-01-06T08:01:32.958Z,71.35
2023-01-06T08:02:35.668Z,71.33
2023-01-06T08:03:37.919Z,71.33
2023-01-06T08:04:40.105Z,71.42
2023-01-06T08:05:42.838Z,71.51
2023-01-06T08:06:45.068Z,71.59
2023-01-06T08:07:47.405Z,71.71
2023-01-06T08:08:49.620Z,71.60
2023-01-06T08:09:51.966Z,71.78
2023-01-06T08:10:58.467Z,71.76
2023-01-06T08:12:01.085Z,71.79
2023-01-06T08:13:03.342Z,71.64
2023-01-06T08:14:08.496Z,71.73
2023-01-06T08:15:11.278Z,71.65
2023-01-06T08:16:13.755Z,71.65
2023-01-06T08:17:16.287Z,71.65
2023-01-06T08:18:18.530Z,71.68
2023-01-06T08:19:21.375Z,71.70
2023-01-06T08:20:23.887Z,71.65
2023-01-06T08:21:26.103Z,71.83
2023-01-06T08:22:28.350Z,71.89
2023-01-06T08:23:31.505Z,71.87
2023-01-06T08:24:33.638Z,71.88
2023-01-06T08:25:35.768Z,72.13
2023-01-06T08:26:37.954Z,72.09
2023-01-06T08:27:40.179Z,72.14
2023-01-06T08:28:44.586Z,72.20
2023-01-06T08:29:47.180Z,72.24
2023-01-06T08:30:49.362Z,72.38
2023-01-06T08:31:59.257Z,72.29
2023-01-06T08:33:07.918Z,72.15
2023-01-06T08:34:11.657Z,72.20
2023-01-06T08:35:14.018Z,72.19
2023-01-06T08:36:18.005Z,72.41
2023-01-06T08:37:20.191Z,72.34
2023-01-06T08:38:22.749Z,72.36
2023-01-06T08:39:24.943Z,72.27
2023-01-06T08:40:27.176Z,72.36
2023-01-06T08:41:29.456Z,72.42
2023-01-06T08:42:31.657Z,72.48
2023-01-06T08:43:34.028Z,72.71
2023-01-06T08:44:36.256Z,72.88
2023-01-06T08:45:39.808Z,73.15
2023-01-06T08:46:42.014Z,73.19
2023-01-06T08:47:44.217Z,73.36
2023-01-06T08:48:47.563Z,73.37
2023-01-06T08:49:49.896Z,73.38
2023-01-06T08:50:52.252Z,73.27
2023-01-06T08:51:54.426Z,73.36
2023-01-06T08:52:56.672Z,73.19
2023-01-06T08:53:58.856Z,73.02
2023-01-06T08:55:02.734Z,73.02
2023-01-06T08:56:05.282Z,72.94
2023-01-06T08:57:09.537Z,72.76
2023-01-06T08:58:12.337Z,72.56
2023-01-06T08:59:17.707Z,72.45
2023-01-06T09:00:20.127Z,72.38
2023-01-06T09:01:25.336Z,72.26
2023-01-06T09:02:30.584Z,72.07
2023-01-06T09:03:32.892Z,71.87
2023-01-06T09:04:35.144Z,71.86
2023-01-06T09:05:37.482Z,71.90
2023-01-06T09:06:43.125Z,71.63
2023-01-06T09:07:45.490Z,71.55
2023-01-06T09:08:48.869Z,71.64
2023-01-06T09:09:51.110Z,71.58
2023-01-06T09:10:53.304Z,71.25
2023-01-06T09:11:55.649Z,71.32
2023-01-06T09:12:57.800Z,71.26
2023-01-06T09:14:00.027Z,71.11
2023-01-06T09:15:02.344Z,71.17
2023-01-06T09:16:09.986Z,71.09
2023-01-06T09:17:12.209Z,71.03
2023-01-06T09:18:14.518Z,71.01
2023-01-06T09:19:17.033Z,71.06
2023-01-06T09:20:19.292Z,70.83
2023-01-06T09:21:22.938Z,70.85
2023-01-06T09:22:25.129Z,70.73
2023-01-06T09:23:27.670Z,70.51
2023-01-06T09:24:29.873Z,70.78
2023-01-06T09:25:32.031Z,70.71
2023-01-06T09:26:34.350Z,70.68
2023-01-06T09:27:36.576Z,70.59
2023-01-06T09:28:38.944Z,70.69
2023-01-06T09:29:41.209Z,70.53
2023-01-06T09:30:46.128Z,70.56
2023-01-06T09:31:48.518Z,70.64
2023-01-06T09:32:50.930Z,70.48
2023-01-06T09:33:53.353Z,70.52
2023-01-06T09:34:55.512Z,70.36
2023-01-06T09:35:57.647Z,70.32
2023-01-06T09:37:00.056Z,70.24
2023-01-06T09:38:02.229Z,70.22
2023-01-06T09:39:04.457Z,70.24
2023-01-06T09:40:07.446Z,70.08
2023-01-06T09:41:31.382Z,69.94
2023-01-06T09:42:57.838Z,70.17
2023-01-06T09:44:17.806Z,70.06
2023-01-06T09:45:30.337Z,70.06
2023-01-06T09:46:37.376Z,70.12
2023-01-06T09:47:47.689Z,70.17
2023-01-06T09:49:08.509Z,70.15
2023-01-06T09:50:36.256Z,70.22
2023-01-06T09:51:38.583Z,70.30
2023-01-06T09:53:13.472Z,70.35
2023-01-06T09:54:18.468Z,70.42
2023-01-06T09:55:30.382Z,70.54
2023-01-06T09:56:32.906Z,70.57
2023-01-06T09:57:43.989Z,70.60
2023-01-06T09:58:59.907Z,70.73
2023-01-06T10:00:07.983Z,70.63
2023-01-06T10:01:13.233Z,70.65
2023-01-06T10:02:23.585Z,70.53
2023-01-06T10:03:27.301Z,70.56
2023-01-06T10:04:30.799Z,70.66
2023-01-06T10:06:00.267Z,70.57
2023-01-06T10:07:21.377Z,70.74
2023-01-06T10:09:09.372Z,70.85
2023-01-06T10:10:23.766Z,70.76
2023-01-06T10:12:15.713Z,70.85
2023-01-06T10:13:39.155Z,70.86
2023-01-06T10:14:50.579Z,71.09
2023-01-06T10:16:31.380Z,71.22
2023-01-06T10:18:09.474Z,70.95
2023-01-06T10:19:45.257Z,71.00
2023-01-06T10:21:25.138Z,71.11
2023-01-06T10:22:45.202Z,71.14
2023-01-06T10:24:18.184Z,71.20
2023-01-06T10:25:33.072Z,71.20
2023-01-06T10:26:43.911Z,71.19
2023-01-06T10:27:54.909Z,71.32
2023-01-06T10:29:06.203Z,71.52
2023-01-06T10:30:43.893Z,71.42
2023-01-06T10:31:49.317Z,71.40
2023-01-06T10:32:52.006Z,71.41
2023-01-06T10:33:57.052Z,71.38
2023-01-06T10:35:00.697Z,71.17
2023-01-06T10:36:03.204Z,71.21
2023-01-06T10:37:17.509Z,71.21
2023-01-06T10:38:26.783Z,70.96
2023-01-06T10:39:30.254Z,71.20
2023-01-06T10:40:33.337Z,71.13
2023-01-06T10:42:18.936Z,70.94
2023-01-06T10:43:23.627Z,70.77
2023-01-06T10:44:25.874Z,70.82
2023-01-06T10:45:40.001Z,70.82
2023-01-06T10:46:45.349Z,70.90
2023-01-06T10:47:47.669Z,70.69
2023-01-06T10:48:50.012Z,70.73
2023-01-06T10:49:52.441Z,70.86
2023-01-06T10:50:57.046Z,70.63
2023-01-06T10:52:04.111Z,70.64
2023-01-06T10:53:06.337Z,70.52
2023-01-06T10:54:19.685Z,70.69
2023-01-06T10:55:24.987Z,70.59
2023-01-06T10:56:29.338Z,70.60
2023-01-06T10:57:38.520Z,70.54
2023-01-06T10:58:54.121Z,70.39
2023-01-06T11:00:16.049Z,70.49
2023-01-06T11:01:27.720Z,70.32
2023-01-06T11:02:30.059Z,70.45
2023-01-06T11:03:34.199Z,70.27
2023-01-06T11:04:51.383Z,70.32
2023-01-06T11:06:06.889Z,70.43
2023-01-06T11:07:14.847Z,70.07
2023-01-06T11:08:20.261Z,70.26
2023-01-06T11:09:30.779Z,69.95
2023-01-06T11:10:41.981Z,69.97
2023-01-06T11:11:50.035Z,69.78
2023-01-06T11:12:52.410Z,69.61
2023-01-06T11:13:57.758Z,69.65
2023-01-06T11:15:06.464Z,69.69
2023-01-06T11:16:24.265Z,69.77
2023-01-06T11:17:28.546Z,69.56
2023-01-06T11:18:33.951Z,69.51
2023-01-06T11:19:43.318Z,69.53
2023-01-06T11:20:46.535Z,69.53
2023-01-06T11:21:48.726Z,69.46
2023-01-06T11:22:51.196Z,69.28
2023-01-06T11:24:14.685Z,69.20
2023-01-06T11:25:19.679Z,68.99
2023-01-06T11:26:23.717Z,68.98
2023-01-06T11:27:26.007Z,68.85
2023-01-06T11:28:28.714Z,68.96
2023-01-06T11:29:33.385Z,68.79
2023-01-06T11:30:42.810Z,68.82
2023-01-06T11:31:49.101Z,68.46
2023-01-06T11:32:51.371Z,68.48
2023-01-06T11:33:59.416Z,68.27
2023-01-06T11:35:05.118Z,68.11
2023-01-06T11:36:10.846Z,67.76
2023-01-06T11:37:13.090Z,67.72
2023-01-06T11:38:17.723Z,67.31
2023-01-06T11:39:31.574Z,67.06
2023-01-06T11:40:37.450Z,66.73
2023-01-06T11:41:44.211Z,66.58
2023-01-06T11:42:58.214Z,66.31
2023-01-06T11:44:17.307Z,66.09
2023-01-06T11:45:36.886Z,66.40
2023-01-06T11:46:46.224Z,65.90
2023-01-06T11:47:49.775Z,65.92
2023-01-06T11:49:04.438Z,65.86
2023-01-06T11:50:06.966Z,65.61
2023-01-06T11:51:10.487Z,65.71
2023-01-06T11:52:31.403Z,65.80
2023-01-06T11:53:34.514Z,65.54
2023-01-06T11:54:39.994Z,65.34
2023-01-06T11:55:42.361Z,65.39
2023-01-06T11:56:58.242Z,65.48
2023-01-06T11:58:08.667Z,65.49
2023-01-06T11:59:14.746Z,65.67
2023-01-06T12:00:22.755Z,65.57
2023-01-06T12:01:33.569Z,65.60
2023-01-06T12:03:11.332Z,65.85
2023-01-06T12:04:41.993Z,66.10
2023-01-06T12:06:12.088Z,65.92
2023-01-06T12:07:38.425Z,65.96
2023-01-06T12:08:51.338Z,66.00
2023-01-06T12:09:58.785Z,65.94
2023-01-06T12:11:13.903Z,65.83
2023-01-06T12:12:27.745Z,65.98
2023-01-06T12:13:30.103Z,65.98
2023-01-06T12:14:36.739Z,65.88
2023-01-06T12:15:42.203Z,65.83
2023-01-06T12:16:48.395Z,65.89
2023-01-06T12:18:23.245Z,65.94
2023-01-06T12:19:35.438Z,65.89
2023-01-06T12:20:41.558Z,65.81
2023-01-06T12:21:43.745Z,65.75
2023-01-06T12:22:50.331Z,65.60
2023-01-06T12:23:53.714Z,65.63
2023-01-06T12:24:57.884Z,65.48
2023-01-06T12:26:04.083Z,65.18
2023-01-06T12:27:08.125Z,65.29
2023-01-06T12:28:20.173Z,65.09
2023-01-06T12:29:25.758Z,65.08
2023-01-06T12:30:49.096Z,65.09
2023-01-06T12:32:02.712Z,64.75
2023-01-06T12:33:19.980Z,64.75
2023-01-06T12:34:29.759Z,64.55
2023-01-06T12:35:34.671Z,64.59
2023-01-06T12:37:29.771Z,64.68
2023-01-06T12:38:53.057Z,64.45
2023-01-06T12:40:15.146Z,64.49
2023-01-06T12:41:24.716Z,64.33
2023-01-06T12:42:37.351Z,64.23
2023-01-06T12:43:44.931Z,64.12
2023-01-06T12:45:01.636Z,64.03
2023-01-06T12:46:22.390Z,63.99
2023-01-06T12:47:43.277Z,63.91
2023-01-06T12:48:50.761Z,63.81
2023-01-06T12:50:02.346Z,63.67
2023-01-06T12:51:17.150Z,63.62
2023-01-06T12:52:35.191Z,63.60
2023-01-06T12:53:43.887Z,63.60
2023-01-06T12:54:56.168Z,63.54
2023-01-06T12:56:17.107Z,63.49
2023-01-06T12:57:47.862Z,63.49
2023-01-06T12:59:00.003Z,63.21
2023-01-06T13:00:23.351Z,63.35
2023-01-06T13:01:55.075Z,63.25
2023-01-06T13:03:09.381Z,63.31
2023-01-06T13:04:39.756Z,63.10
2023-01-06T13:05:52.854Z,62.82
2023-01-06T13:07:00.966Z,62.89
2023-01-06T13:08:08.777Z,63.03
2023-01-06T13:09:46.484Z,62.84
2023-01-06T13:10:57.738Z,62.64
2023-01-06T13:12:12.290Z,62.58
2023-01-06T13:13:46.877Z,62.16
2023-01-06T13:15:13.162Z,61.99
2023-01-06T13:16:53.391Z,62.09
2023-01-06T13:18:13.837Z,61.54
2023-01-06T13:19:31.317Z,61.30
2023-01-06T13:20:48.108Z,61.10
2023-01-06T13:21:58.182Z,60.87
2023-01-06T13:23:35.297Z,61.03
2023-01-06T13:24:51.363Z,60.75
2023-01-06T13:26:02.786Z,60.73
2023-01-06T13:27:26.353Z,60.75
2023-01-06T13:28:43.418Z,60.69
2023-01-06T13:30:10.290Z,60.59
2023-01-06T13:31:18.551Z,60.28
2023-01-06T13:32:43.233Z,60.20
2023-01-06T13:34:08.840Z,60.02
2023-01-06T13:35:30.036Z,60.12
2023-01-06T13:36:59.369Z,59.87
2023-01-06T13:38:22.370Z,59.85
2023-01-06T13:39:34.382Z,59.57
2023-01-06T13:40:40.200Z,59.49
2023-01-06T13:41:46.585Z,59.59
2023-01-06T13:43:20.734Z,59.98
2023-01-06T13:44:30.360Z,59.43
2023-01-06T13:45:43.710Z,59.22
2023-01-06T13:46:48.071Z,59.14
2023-01-06T13:47:51.186Z,59.03
2023-01-06T13:49:01.903Z,58.84
2023-01-06T13:50:05.598Z,58.73
2023-01-06T13:51:11.732Z,58.81
2023-01-06T13:52:24.156Z,58.57
2023-01-06T13:53:27.540Z,58.68
2023-01-06T13:54:41.955Z,58.73
2023-01-06T13:55:44.779Z,58.40
2023-01-06T13:57:33.035Z,58.71
2023-01-06T13:58:37.146Z,58.58
2023-01-06T13:59:53.442Z,58.24
2023-01-06T14:01:05.580Z,58.28
2023-01-06T14:02:33.699Z,58.43
2023-01-06T14:03:38.364Z,58.36
2023-01-06T14:04:42.724Z,58.20
2023-01-06T14:05:44.902Z,58.01
2023-01-06T14:06:47.731Z,57.93
2023-01-06T14:07:59.917Z,58.02
2023-01-06T14:09:02.174Z,57.86
2023-01-06T14:10:26.193Z,57.84
2023-01-06T14:11:32.015Z,57.59
2023-01-06T14:12:37.427Z,57.77
2023-01-06T14:13:40.851Z,57.57
2023-01-06T14:14:43.281Z,57.56
2023-01-06T14:16:11.693Z,57.77
2023-01-06T14:17:39.126Z,57.72
2023-01-06T14:18:52.323Z,57.49
2023-01-06T14:19:55.587Z,57.62
2023-01-06T14:21:04.905Z,57.48
2023-01-06T14:22:19.413Z,57.70
2023-01-06T14:23:24.497Z,57.62
2023-01-06T14:24:34.135Z,57.44
2023-01-06T14:25:41.253Z,57.68
2023-01-06T14:26:48.788Z,57.59
2023-01-06T14:27:50.925Z,57.59
2023-01-06T14:28:53.205Z,57.65
2023-01-06T14:30:05.851Z,57.56
2023-01-06T14:31:26.006Z,57.45
2023-01-06T14:32:28.122Z,57.44
2023-01-06T14:33:44.426Z,57.46
2023-01-06T14:34:57.643Z,57.52
2023-01-06T14:36:04.067Z,57.39